No Title

Espaces réglementés et Zones à statuts particuliers aero et les espaces réglementés qui sont les zones de l’annexe I et II de l’Arrêté du 11 avril 2012 relatives à l’espace aérien par les aéronefs qui circulent sans personne à bord. biton
Réserve naturelle bleue
Base ULM ULM
Héliport HELIPORT
Parapente PARAPENTE
piloteDRONE votre enplacement

 

METAR FMEE
Available data for FMEE from the past 2 hours
ST. DENIS/GILLOT
Metar
FMEE 220800Z 14011KT 9999 SCT023 BKN050 24/18 Q1018 TEMPO 4500 SHRA

08:00 UTC

Wind: 140° 11kt

Visibility: 9999 m

Sky: SCT 2300 ft

Temp: 24 deg C / 75.2 deg F

Dewpoint: 18 deg C / 64.4 deg F

Pressure: 1018 hPa

TAF FMEE
Available data for FMEE from the past 2 hours
ST. DENIS/GILLOT
TAF
TAF FMEE 220500Z 2206/2312 11016KT 9999 SCT020 SCT045 TEMPO 2206/2306 08015G25KT 4500 SHRA FEW015CB

 

METAR FMEP
Available data for FMEP from the past 2 hours
ST. PIERRE/FONDS
Metar
FMEP 220800Z AUTO 31006KT 9999 BKN062 OVC084 26/14 Q1018 TEMPO 4500 SHRA FEW015TCU

08:00 UTC

Wind: 310° 6kt

Visibility: 9999 m

Sky: BKN 6200 ft

Temp: 26 deg C / 78.8 deg F

Dewpoint: 14 deg C / 57.2 deg F

Pressure: 1018 hPa

TAF FMEP
Available data for FMEP from the past 2 hours
ST. PIERRE/FONDS
TAF
TAF FMEP 220500Z 2206/2215 21008KT 9999 SCT060 PROB30 TEMPO 2208/2215 4500 SHRA FEW015TCU

 

NOTAM